sensor_id;sensor_type;location;lat;lon;timestamp;pressure;altitude;pressure_sealevel;temperature;humidity
66742;BME280;53654;54.152;19.432;2022-09-21T00:01:35;101851.48;;;11.35;91.26
66742;BME280;53654;54.152;19.432;2022-09-21T00:04:03;101854.77;;;11.31;91.09
66742;BME280;53654;54.152;19.432;2022-09-21T00:06:33;101853.00;;;11.26;91.06
66742;BME280;53654;54.152;19.432;2022-09-21T00:09:02;101854.73;;;11.23;91.48
66742;BME280;53654;54.152;19.432;2022-09-21T00:11:33;101848.77;;;11.22;91.63
66742;BME280;53654;54.152;19.432;2022-09-21T00:14:08;101852.10;;;11.22;91.85
66742;BME280;53654;54.152;19.432;2022-09-21T00:16:41;101853.85;;;11.22;92.08
66742;BME280;53654;54.152;19.432;2022-09-21T00:19:10;101857.69;;;11.22;92.27
66742;BME280;53654;54.152;19.432;2022-09-21T00:21:38;101860.48;;;11.21;92.31
66742;BME280;53654;54.152;19.432;2022-09-21T00:24:07;101859.60;;;11.20;92.14
66742;BME280;53654;54.152;19.432;2022-09-21T00:26:35;101864.30;;;11.20;92.10
66742;BME280;53654;54.152;19.432;2022-09-21T00:29:03;101878.45;;;11.19;92.43
66742;BME280;53654;54.152;19.432;2022-09-21T00:31:32;101874.41;;;11.16;92.29
66742;BME280;53654;54.152;19.432;2022-09-21T00:34:00;101876.50;;;11.15;92.35
66742;BME280;53654;54.152;19.432;2022-09-21T00:36:30;101874.92;;;11.14;92.29
66742;BME280;53654;54.152;19.432;2022-09-21T00:39:00;101869.85;;;11.12;92.31
66742;BME280;53654;54.152;19.432;2022-09-21T00:41:30;101871.59;;;11.12;92.47
66742;BME280;53654;54.152;19.432;2022-09-21T00:44:31;101869.85;;;11.12;92.54
66742;BME280;53654;54.152;19.432;2022-09-21T00:47:03;101869.48;;;11.10;92.55
66742;BME280;53654;54.152;19.432;2022-09-21T00:49:35;101868.41;;;11.08;92.78
66742;BME280;53654;54.152;19.432;2022-09-21T00:52:05;101867.02;;;11.07;93.06
66742;BME280;53654;54.152;19.432;2022-09-21T00:54:44;101868.59;;;11.07;93.17
66742;BME280;53654;54.152;19.432;2022-09-21T00:57:14;101871.38;;;11.07;93.33
66742;BME280;53654;54.152;19.432;2022-09-21T00:59:44;101876.62;;;11.07;93.33
66742;BME280;53654;54.152;19.432;2022-09-21T01:02:11;101878.71;;;11.06;93.43
66742;BME280;53654;54.152;19.432;2022-09-21T01:04:41;101879.06;;;11.07;93.69
66742;BME280;53654;54.152;19.432;2022-09-21T01:07:14;101884.83;;;11.07;93.75
66742;BME280;53654;54.152;19.432;2022-09-21T01:09:48;101885.87;;;11.06;93.62
66742;BME280;53654;54.152;19.432;2022-09-21T01:15:45;101885.16;;;11.06;93.15
66742;BME280;53654;54.152;19.432;2022-09-21T01:18:23;101881.48;;;11.03;93.28
66742;BME280;53654;54.152;19.432;2022-09-21T01:27:15;101876.58;;;11.02;93.06
66742;BME280;53654;54.152;19.432;2022-09-21T01:30:15;101876.04;;;10.99;93.02
66742;BME280;53654;54.152;19.432;2022-09-21T01:35:29;101875.97;;;10.90;93.09
66742;BME280;53654;54.152;19.432;2022-09-21T01:38:06;101876.65;;;10.88;93.29
66742;BME280;53654;54.152;19.432;2022-09-21T01:40:41;101877.69;;;10.87;93.36
66742;BME280;53654;54.152;19.432;2022-09-21T01:43:14;101880.98;;;10.85;93.43
66742;BME280;53654;54.152;19.432;2022-09-21T01:45:49;101883.25;;;10.84;93.82
66742;BME280;53654;54.152;19.432;2022-09-21T01:48:19;101878.70;;;10.83;93.77
66742;BME280;53654;54.152;19.432;2022-09-21T01:50:55;101883.41;;;10.83;93.78
66742;BME280;53654;54.152;19.432;2022-09-21T01:53:36;101890.40;;;10.84;93.87
66742;BME280;53654;54.152;19.432;2022-09-21T01:56:11;101890.93;;;10.84;94.16
66742;BME280;53654;54.152;19.432;2022-09-21T01:58:57;101889.90;;;10.86;94.48
66742;BME280;53654;54.152;19.432;2022-09-21T02:01:29;101894.09;;;10.86;94.45
66742;BME280;53654;54.152;19.432;2022-09-21T02:04:03;101898.45;;;10.87;94.39
66742;BME280;53654;54.152;19.432;2022-09-21T02:06:32;101895.67;;;10.88;94.52
66742;BME280;53654;54.152;19.432;2022-09-21T02:09:00;101901.61;;;10.89;94.46
66742;BME280;53654;54.152;19.432;2022-09-21T02:11:28;101896.55;;;10.89;94.40
66742;BME280;53654;54.152;19.432;2022-09-21T02:13:56;101898.65;;;10.89;94.25
66742;BME280;53654;54.152;19.432;2022-09-21T02:16:38;101911.05;;;10.89;94.05
66742;BME280;53654;54.152;19.432;2022-09-21T02:22:12;101902.30;;;10.87;94.35
66742;BME280;53654;54.152;19.432;2022-09-21T02:24:45;101904.34;;;10.82;94.23
66742;BME280;53654;54.152;19.432;2022-09-21T02:35:29;101900.48;;;10.80;94.69
66742;BME280;53654;54.152;19.432;2022-09-21T02:46:25;101909.34;;;10.74;94.95
66742;BME280;53654;54.152;19.432;2022-09-21T02:49:03;101911.42;;;10.74;94.96
66742;BME280;53654;54.152;19.432;2022-09-21T02:51:38;101914.39;;;10.74;94.92
66742;BME280;53654;54.152;19.432;2022-09-21T02:54:10;101917.89;;;10.74;94.88
66742;BME280;53654;54.152;19.432;2022-09-21T02:56:41;101919.11;;;10.74;95.10
66742;BME280;53654;54.152;19.432;2022-09-21T02:59:11;101930.11;;;10.73;95.14
66742;BME280;53654;54.152;19.432;2022-09-21T03:01:39;101933.77;;;10.75;95.35
66742;BME280;53654;54.152;19.432;2022-09-21T03:04:09;101931.00;;;10.77;95.31
66742;BME280;53654;54.152;19.432;2022-09-21T03:06:37;101931.36;;;10.77;95.37
66742;BME280;53654;54.152;19.432;2022-09-21T03:09:05;101934.15;;;10.78;95.57
66742;BME280;53654;54.152;19.432;2022-09-21T03:11:33;101937.14;;;10.80;95.41
66742;BME280;53654;54.152;19.432;2022-09-21T03:14:02;101935.94;;;10.81;95.54
66742;BME280;53654;54.152;19.432;2022-09-21T03:16:35;101941.02;;;10.83;95.52
66742;BME280;53654;54.152;19.432;2022-09-21T03:19:04;101941.38;;;10.85;95.52
66742;BME280;53654;54.152;19.432;2022-09-21T03:21:32;101946.46;;;10.87;95.57
66742;BME280;53654;54.152;19.432;2022-09-21T03:24:01;101949.45;;;10.88;95.60
66742;BME280;53654;54.152;19.432;2022-09-21T03:26:29;101950.16;;;10.90;95.82
66742;BME280;53654;54.152;19.432;2022-09-21T03:28:57;101951.23;;;10.92;96.08
66742;BME280;53654;54.152;19.432;2022-09-21T03:31:25;101953.52;;;10.95;96.03
66742;BME280;53654;54.152;19.432;2022-09-21T03:33:53;101953.00;;;10.96;95.97
66742;BME280;53654;54.152;19.432;2022-09-21T03:36:21;101945.66;;;10.94;95.97
66742;BME280;53654;54.152;19.432;2022-09-21T03:38:49;101943.21;;;10.94;96.22
66742;BME280;53654;54.152;19.432;2022-09-21T03:41:17;101944.77;;;10.94;96.18
66742;BME280;53654;54.152;19.432;2022-09-21T03:43:46;101946.36;;;10.95;96.17
66742;BME280;53654;54.152;19.432;2022-09-21T03:46:14;101943.23;;;10.96;96.25
66742;BME280;53654;54.152;19.432;2022-09-21T03:48:43;101939.55;;;10.95;96.36
66742;BME280;53654;54.152;19.432;2022-09-21T03:51:14;101937.99;;;10.97;96.43
66742;BME280;53654;54.152;19.432;2022-09-21T03:53:42;101940.80;;;10.98;96.53
66742;BME280;53654;54.152;19.432;2022-09-21T03:56:10;101941.50;;;10.97;96.40
66742;BME280;53654;54.152;19.432;2022-09-21T03:58:37;101941.16;;;10.99;96.62
66742;BME280;53654;54.152;19.432;2022-09-21T04:01:05;101941.01;;;11.01;96.52
66742;BME280;53654;54.152;19.432;2022-09-21T04:03:33;101946.27;;;11.03;96.28
66742;BME280;53654;54.152;19.432;2022-09-21T04:06:07;101951.83;;;11.02;96.07
66742;BME280;53654;54.152;19.432;2022-09-21T04:08:35;101955.82;;;10.98;95.90
66742;BME280;53654;54.152;19.432;2022-09-21T04:11:17;101959.97;;;10.94;95.84
66742;BME280;53654;54.152;19.432;2022-09-21T04:13:49;101960.11;;;10.90;95.65
66742;BME280;53654;54.152;19.432;2022-09-21T04:16:19;101964.10;;;10.87;95.66
66742;BME280;53654;54.152;19.432;2022-09-21T04:18:49;101970.02;;;10.86;95.71
66742;BME280;53654;54.152;19.432;2022-09-21T04:21:17;101965.46;;;10.85;95.69
66742;BME280;53654;54.152;19.432;2022-09-21T04:23:46;101968.77;;;10.83;95.52
66742;BME280;53654;54.152;19.432;2022-09-21T04:26:25;101974.52;;;10.81;95.57
66742;BME280;53654;54.152;19.432;2022-09-21T04:28:53;101976.05;;;10.79;95.60
66742;BME280;53654;54.152;19.432;2022-09-21T04:31:23;101977.28;;;10.79;95.80
66742;BME280;53654;54.152;19.432;2022-09-21T04:33:52;101979.38;;;10.79;95.85
66742;BME280;53654;54.152;19.432;2022-09-21T04:36:21;101982.69;;;10.78;95.86
66742;BME280;53654;54.152;19.432;2022-09-21T04:38:50;101984.09;;;10.79;96.05
66742;BME280;53654;54.152;19.432;2022-09-21T04:41:18;101982.52;;;10.79;96.08
66742;BME280;53654;54.152;19.432;2022-09-21T04:43:47;101979.73;;;10.80;96.03
66742;BME280;53654;54.152;19.432;2022-09-21T04:46:17;101981.17;;;10.84;96.16
66742;BME280;53654;54.152;19.432;2022-09-21T04:48:46;101977.02;;;10.88;95.88
66742;BME280;53654;54.152;19.432;2022-09-21T04:51:15;101979.86;;;10.92;95.77
66742;BME280;53654;54.152;19.432;2022-09-21T04:53:44;101981.82;;;10.96;95.59
66742;BME280;53654;54.152;19.432;2022-09-21T04:56:14;101982.71;;;10.99;95.15
66742;BME280;53654;54.152;19.432;2022-09-21T04:58:42;101978.69;;;10.97;94.91
66742;BME280;53654;54.152;19.432;2022-09-21T05:01:10;101978.87;;;10.98;95.17
66742;BME280;53654;54.152;19.432;2022-09-21T05:03:39;101983.59;;;10.99;94.61
66742;BME280;53654;54.152;19.432;2022-09-21T05:06:07;101985.34;;;10.99;94.57
66742;BME280;53654;54.152;19.432;2022-09-21T05:08:37;101994.96;;;11.01;94.68
66742;BME280;53654;54.152;19.432;2022-09-21T05:11:24;101996.90;;;11.04;95.02
66742;BME280;53654;54.152;19.432;2022-09-21T05:13:52;102003.22;;;11.07;95.08
66742;BME280;53654;54.152;19.432;2022-09-21T05:16:21;102007.59;;;11.09;95.17
66742;BME280;53654;54.152;19.432;2022-09-21T05:18:51;102005.19;;;11.12;95.47
66742;BME280;53654;54.152;19.432;2022-09-21T05:21:20;102008.52;;;11.15;95.63
66742;BME280;53654;54.152;19.432;2022-09-21T05:23:49;102008.73;;;11.17;95.41
66742;BME280;53654;54.152;19.432;2022-09-21T05:26:18;102008.05;;;11.19;95.53
66742;BME280;53654;54.152;19.432;2022-09-21T05:28:46;102007.19;;;11.21;95.49
66742;BME280;53654;54.152;19.432;2022-09-21T05:39:33;102029.84;;;11.34;95.72
66742;BME280;53654;54.152;19.432;2022-09-21T05:42:01;102029.33;;;11.35;95.53
66742;BME280;53654;54.152;19.432;2022-09-21T05:44:30;102029.68;;;11.36;95.47
66742;BME280;53654;54.152;19.432;2022-09-21T05:47:04;102032.48;;;11.37;95.34
66742;BME280;53654;54.152;19.432;2022-09-21T05:49:48;102034.78;;;11.40;95.41
66742;BME280;53654;54.152;19.432;2022-09-21T05:52:31;102032.04;;;11.47;95.60
66742;BME280;53654;54.152;19.432;2022-09-21T05:55:42;102030.52;;;11.52;94.78
66742;BME280;53654;54.152;19.432;2022-09-21T05:58:27;102029.16;;;11.57;95.03
66742;BME280;53654;54.152;19.432;2022-09-21T06:03:29;102027.30;;;11.66;94.74
66742;BME280;53654;54.152;19.432;2022-09-21T06:05:58;102025.61;;;11.73;94.90
66742;BME280;53654;54.152;19.432;2022-09-21T06:08:26;102023.91;;;11.77;94.66
66742;BME280;53654;54.152;19.432;2022-09-21T06:10:54;102027.63;;;11.81;94.72
66742;BME280;53654;54.152;19.432;2022-09-21T06:13:22;102033.61;;;11.87;94.64
66742;BME280;53654;54.152;19.432;2022-09-21T06:15:51;102031.02;;;11.94;94.56
66742;BME280;53654;54.152;19.432;2022-09-21T06:18:19;102036.50;;;12.03;94.58
66742;BME280;53654;54.152;19.432;2022-09-21T06:20:47;102038.81;;;12.10;94.55
66742;BME280;53654;54.152;19.432;2022-09-21T06:23:15;102036.22;;;12.15;94.23
66742;BME280;53654;54.152;19.432;2022-09-21T06:25:43;102040.09;;;12.19;93.88
66742;BME280;53654;54.152;19.432;2022-09-21T06:28:12;102039.56;;;12.19;93.49
66742;BME280;53654;54.152;19.432;2022-09-21T06:30:40;102042.19;;;12.20;93.11
66742;BME280;53654;54.152;19.432;2022-09-21T06:33:09;102046.92;;;12.21;93.19
66742;BME280;53654;54.152;19.432;2022-09-21T06:35:37;102048.70;;;12.24;93.39
66742;BME280;53654;54.152;19.432;2022-09-21T06:38:07;102050.46;;;12.29;93.42
66742;BME280;53654;54.152;19.432;2022-09-21T06:40:35;102047.86;;;12.32;93.37
66742;BME280;53654;54.152;19.432;2022-09-21T06:43:04;102051.56;;;12.37;93.48
66742;BME280;53654;54.152;19.432;2022-09-21T06:45:33;102048.25;;;12.41;93.25
66742;BME280;53654;54.152;19.432;2022-09-21T06:48:01;102048.63;;;12.47;93.20
66742;BME280;53654;54.152;19.432;2022-09-21T06:50:29;102049.35;;;12.52;93.25
66742;BME280;53654;54.152;19.432;2022-09-21T06:53:00;102048.14;;;12.57;92.80
66742;BME280;53654;54.152;19.432;2022-09-21T06:55:30;102052.89;;;12.65;92.76
66742;BME280;53654;54.152;19.432;2022-09-21T06:58:02;102056.77;;;12.70;92.63
66742;BME280;53654;54.152;19.432;2022-09-21T07:00:31;102058.54;;;12.75;92.44
66742;BME280;53654;54.152;19.432;2022-09-21T07:02:59;102059.25;;;12.79;92.59
66742;BME280;53654;54.152;19.432;2022-09-21T07:05:27;102059.26;;;12.82;92.41
66742;BME280;53654;54.152;19.432;2022-09-21T07:07:56;102064.00;;;12.84;92.32
66742;BME280;53654;54.152;19.432;2022-09-21T07:10:25;102063.48;;;12.84;92.21
66742;BME280;53654;54.152;19.432;2022-09-21T07:12:53;102069.95;;;12.86;92.01
66742;BME280;53654;54.152;19.432;2022-09-21T07:15:21;102074.16;;;12.90;92.03
66742;BME280;53654;54.152;19.432;2022-09-21T07:17:50;102081.36;;;12.93;91.79
66742;BME280;53654;54.152;19.432;2022-09-21T07:20:19;102088.37;;;12.93;91.67
66742;BME280;53654;54.152;19.432;2022-09-21T07:22:47;102089.42;;;12.93;91.77
66742;BME280;53654;54.152;19.432;2022-09-21T07:25:15;102097.47;;;12.92;91.51
66742;BME280;53654;54.152;19.432;2022-09-21T07:27:43;102097.81;;;12.89;91.21
66742;BME280;53654;54.152;19.432;2022-09-21T07:30:12;102099.73;;;12.86;91.33
66742;BME280;53654;54.152;19.432;2022-09-21T07:32:40;102105.49;;;12.83;90.54
66742;BME280;53654;54.152;19.432;2022-09-21T07:35:08;102106.52;;;12.76;90.28
66742;BME280;53654;54.152;19.432;2022-09-21T07:37:36;102112.98;;;12.71;89.87
66742;BME280;53654;54.152;19.432;2022-09-21T07:40:04;102111.37;;;12.64;89.42
66742;BME280;53654;54.152;19.432;2022-09-21T07:42:33;102110.46;;;12.56;89.72
66742;BME280;53654;54.152;19.432;2022-09-21T07:45:01;102109.04;;;12.52;90.07
66742;BME280;53654;54.152;19.432;2022-09-21T07:47:31;102106.74;;;12.49;90.18
66742;BME280;53654;54.152;19.432;2022-09-21T07:49:59;102106.58;;;12.49;90.89
66742;BME280;53654;54.152;19.432;2022-09-21T07:52:27;102105.54;;;12.51;91.08
66742;BME280;53654;54.152;19.432;2022-09-21T07:54:55;102103.27;;;12.52;90.98
66742;BME280;53654;54.152;19.432;2022-09-21T07:57:23;102105.38;;;12.55;91.23
66742;BME280;53654;54.152;19.432;2022-09-21T08:00:12;102103.81;;;12.57;90.99
66742;BME280;53654;54.152;19.432;2022-09-21T08:02:40;102103.11;;;12.58;91.29
66742;BME280;53654;54.152;19.432;2022-09-21T08:05:14;102098.59;;;12.63;91.39
66742;BME280;53654;54.152;19.432;2022-09-21T08:07:42;102091.77;;;12.66;91.56
66742;BME280;53654;54.152;19.432;2022-09-21T08:10:10;102095.27;;;12.68;91.30
66742;BME280;53654;54.152;19.432;2022-09-21T08:12:39;102100.36;;;12.70;91.28
66742;BME280;53654;54.152;19.432;2022-09-21T08:15:08;102104.22;;;12.71;91.11
66742;BME280;53654;54.152;19.432;2022-09-21T08:17:57;102104.05;;;12.73;90.76
66742;BME280;53654;54.152;19.432;2022-09-21T08:20:25;102094.61;;;12.74;90.33
66742;BME280;53654;54.152;19.432;2022-09-21T08:22:54;102095.64;;;12.72;88.29
66742;BME280;53654;54.152;19.432;2022-09-21T08:25:22;102098.09;;;12.72;88.56
66742;BME280;53654;54.152;19.432;2022-09-21T08:27:56;102096.18;;;12.74;88.74
66742;BME280;53654;54.152;19.432;2022-09-21T08:30:25;102097.25;;;12.79;88.49
66742;BME280;53654;54.152;19.432;2022-09-21T08:32:54;102098.14;;;12.84;88.20
66742;BME280;53654;54.152;19.432;2022-09-21T08:35:23;102099.56;;;12.91;87.39
66742;BME280;53654;54.152;19.432;2022-09-21T08:37:52;102103.27;;;13.01;87.85
66742;BME280;53654;54.152;19.432;2022-09-21T08:40:20;102111.20;;;13.13;87.80
66742;BME280;53654;54.152;19.432;2022-09-21T08:42:58;102132.10;;;13.20;85.64
66742;BME280;53654;54.152;19.432;2022-09-21T08:45:33;102133.15;;;13.20;85.92
66742;BME280;53654;54.152;19.432;2022-09-21T08:48:06;102131.90;;;13.17;86.27
66742;BME280;53654;54.152;19.432;2022-09-21T08:50:44;102122.76;;;13.11;85.40
66742;BME280;53654;54.152;19.432;2022-09-21T08:55:46;102115.71;;;13.03;85.97
66742;BME280;53654;54.152;19.432;2022-09-21T08:58:28;102108.88;;;13.00;85.46
66742;BME280;53654;54.152;19.432;2022-09-21T09:01:30;102107.65;;;12.95;85.59
66742;BME280;53654;54.152;19.432;2022-09-21T09:10:16;102098.87;;;12.94;85.21
66742;BME280;53654;54.152;19.432;2022-09-21T09:13:02;102101.16;;;12.96;85.91
66742;BME280;53654;54.152;19.432;2022-09-21T09:15:54;102104.67;;;13.02;86.51
66742;BME280;53654;54.152;19.432;2022-09-21T09:26:43;102099.89;;;13.41;86.64
66742;BME280;53654;54.152;19.432;2022-09-21T09:31:59;102098.16;;;13.66;87.20
66742;BME280;53654;54.152;19.432;2022-09-21T09:34:31;102098.33;;;13.75;86.96
66742;BME280;53654;54.152;19.432;2022-09-21T09:37:12;102095.52;;;13.82;84.91
66742;BME280;53654;54.152;19.432;2022-09-21T09:39:43;102094.48;;;13.87;85.27
66742;BME280;53654;54.152;19.432;2022-09-21T09:51:10;102086.20;;;14.10;85.11
66742;BME280;53654;54.152;19.432;2022-09-21T09:53:39;102081.79;;;14.21;85.45
66742;BME280;53654;54.152;19.432;2022-09-21T09:56:09;102079.11;;;14.33;85.24
66742;BME280;53654;54.152;19.432;2022-09-21T09:58:50;102077.71;;;14.44;85.48
66742;BME280;53654;54.152;19.432;2022-09-21T10:01:43;102084.36;;;14.51;84.69
66742;BME280;53654;54.152;19.432;2022-09-21T10:04:15;102088.73;;;14.56;84.01
66742;BME280;53654;54.152;19.432;2022-09-21T10:06:44;102089.27;;;14.55;83.35
66742;BME280;53654;54.152;19.432;2022-09-21T10:09:30;102089.97;;;14.56;83.97
66742;BME280;53654;54.152;19.432;2022-09-21T10:12:16;102088.38;;;14.59;84.14
66742;BME280;53654;54.152;19.432;2022-09-21T10:14:51;102084.84;;;14.62;83.76
66742;BME280;53654;54.152;19.432;2022-09-21T10:17:20;102092.75;;;14.63;82.07
66742;BME280;53654;54.152;19.432;2022-09-21T10:20:05;102092.76;;;14.62;81.67
66742;BME280;53654;54.152;19.432;2022-09-21T10:22:33;102100.48;;;14.61;82.34
66742;BME280;53654;54.152;19.432;2022-09-21T10:25:02;102104.73;;;14.52;82.18
66742;BME280;53654;54.152;19.432;2022-09-21T10:27:34;102097.02;;;14.37;82.02
66742;BME280;53654;54.152;19.432;2022-09-21T10:30:03;102092.84;;;14.22;82.08
66742;BME280;53654;54.152;19.432;2022-09-21T10:32:31;102091.30;;;14.07;81.96
66742;BME280;53654;54.152;19.432;2022-09-21T10:37:42;102091.84;;;13.79;82.32
66742;BME280;53654;54.152;19.432;2022-09-21T10:42:50;102089.92;;;13.67;83.76
66742;BME280;53654;54.152;19.432;2022-09-21T10:45:22;102086.23;;;13.64;83.94
66742;BME280;53654;54.152;19.432;2022-09-21T10:50:37;102082.38;;;13.59;84.67
66742;BME280;53654;54.152;19.432;2022-09-21T10:55:43;102080.80;;;13.65;85.57
66742;BME280;53654;54.152;19.432;2022-09-21T10:58:33;102079.05;;;13.69;85.45
66742;BME280;53654;54.152;19.432;2022-09-21T11:01:30;102078.35;;;13.70;83.04
66742;BME280;53654;54.152;19.432;2022-09-21T11:04:16;102080.10;;;13.67;82.68
66742;BME280;53654;54.152;19.432;2022-09-21T11:06:50;102079.92;;;13.65;82.67
66742;BME280;53654;54.152;19.432;2022-09-21T11:15:26;102075.89;;;13.69;82.55
66742;BME280;53654;54.152;19.432;2022-09-21T11:18:18;102075.19;;;13.71;81.34
66742;BME280;53654;54.152;19.432;2022-09-21T11:20:51;102075.36;;;13.71;79.75
66742;BME280;53654;54.152;19.432;2022-09-21T11:28:58;102075.54;;;13.80;77.53
66742;BME280;53654;54.152;19.432;2022-09-21T11:34:49;102075.17;;;13.87;78.84
66742;BME280;53654;54.152;19.432;2022-09-21T11:37:26;102076.74;;;13.90;78.78
66742;BME280;53654;54.152;19.432;2022-09-21T11:40:06;102075.34;;;13.91;78.60
66742;BME280;53654;54.152;19.432;2022-09-21T11:42:49;102076.75;;;13.89;79.34
66742;BME280;53654;54.152;19.432;2022-09-21T12:01:58;102077.81;;;13.87;82.55
66742;BME280;53654;54.152;19.432;2022-09-21T12:12:59;102082.37;;;13.82;82.62
66742;BME280;53654;54.152;19.432;2022-09-21T12:18:26;102079.92;;;13.64;81.99
66742;BME280;53654;54.152;19.432;2022-09-21T12:23:43;102076.59;;;13.56;82.45
66742;BME280;53654;54.152;19.432;2022-09-21T12:26:17;102076.94;;;13.58;83.06
66742;BME280;53654;54.152;19.432;2022-09-21T12:29:00;102076.06;;;13.63;82.93
66742;BME280;53654;54.152;19.432;2022-09-21T12:31:34;102080.10;;;13.67;83.30
66742;BME280;53654;54.152;19.432;2022-09-21T12:36:47;102081.67;;;13.72;83.72
66742;BME280;53654;54.152;19.432;2022-09-21T12:39:24;102087.29;;;13.69;83.69
66742;BME280;53654;54.152;19.432;2022-09-21T12:42:00;102081.50;;;13.62;82.17
66742;BME280;53654;54.152;19.432;2022-09-21T12:44:38;102083.08;;;13.53;81.69
66742;BME280;53654;54.152;19.432;2022-09-21T12:50:02;102085.34;;;13.37;81.74
66742;BME280;53654;54.152;19.432;2022-09-21T12:52:32;102090.06;;;13.28;82.33
66742;BME280;53654;54.152;19.432;2022-09-21T13:01:13;102091.73;;;13.04;83.40
66742;BME280;53654;54.152;19.432;2022-09-21T13:09:41;102094.20;;;13.11;81.94
66742;BME280;53654;54.152;19.432;2022-09-21T13:12:23;102093.50;;;13.14;81.60
66742;BME280;53654;54.152;19.432;2022-09-21T13:15:12;102097.36;;;13.15;80.51
66742;BME280;53654;54.152;19.432;2022-09-21T13:17:41;102095.65;;;13.18;81.06
66742;BME280;53654;54.152;19.432;2022-09-21T13:20:18;102097.05;;;13.20;80.55
66742;BME280;53654;54.152;19.432;2022-09-21T13:22:47;102100.74;;;13.25;81.20
66742;BME280;53654;54.152;19.432;2022-09-21T13:30:29;102093.92;;;13.39;78.01
66742;BME280;53654;54.152;19.432;2022-09-21T13:32:59;102094.98;;;13.40;78.35
66742;BME280;53654;54.152;19.432;2022-09-21T13:51:54;102099.11;;;13.12;80.42
66742;BME280;53654;54.152;19.432;2022-09-21T13:54:26;102098.58;;;13.09;80.67
66742;BME280;53654;54.152;19.432;2022-09-21T13:57:06;102098.39;;;13.09;80.96
66742;BME280;53654;54.152;19.432;2022-09-21T13:59:44;102101.38;;;13.11;81.60
66742;BME280;53654;54.152;19.432;2022-09-21T14:02:27;102097.19;;;13.14;81.05
66742;BME280;53654;54.152;19.432;2022-09-21T14:05:38;102095.43;;;13.14;81.22
66742;BME280;53654;54.152;19.432;2022-09-21T14:11:15;102094.42;;;13.19;81.71
66742;BME280;53654;54.152;19.432;2022-09-21T14:13:58;102091.98;;;13.22;81.92
66742;BME280;53654;54.152;19.432;2022-09-21T14:19:56;102094.79;;;13.25;82.28
66742;BME280;53654;54.152;19.432;2022-09-21T14:27:36;102107.41;;;13.26;82.09
66742;BME280;53654;54.152;19.432;2022-09-21T14:30:16;102102.33;;;13.27;81.85
66742;BME280;53654;54.152;19.432;2022-09-21T14:35:36;102104.61;;;13.32;80.45
66742;BME280;53654;54.152;19.432;2022-09-21T14:38:19;102100.40;;;13.30;78.86
66742;BME280;53654;54.152;19.432;2022-09-21T14:40:51;102105.31;;;13.31;78.39
66742;BME280;53654;54.152;19.432;2022-09-21T14:43:29;102108.28;;;13.28;77.72
66742;BME280;53654;54.152;19.432;2022-09-21T14:46:23;102109.15;;;13.24;77.44
66742;BME280;53654;54.152;19.432;2022-09-21T14:49:13;102105.98;;;13.19;77.18
66742;BME280;53654;54.152;19.432;2022-09-21T14:51:58;102109.32;;;13.18;77.88
66742;BME280;53654;54.152;19.432;2022-09-21T15:00:41;102110.55;;;13.18;77.97
66742;BME280;53654;54.152;19.432;2022-09-21T15:05:57;102113.70;;;13.20;78.11
66742;BME280;53654;54.152;19.432;2022-09-21T15:11:30;102118.08;;;13.18;76.83
66742;BME280;53654;54.152;19.432;2022-09-21T15:16:43;102122.06;;;13.13;76.57
66742;BME280;53654;54.152;19.432;2022-09-21T15:19:28;102119.60;;;13.11;76.91
66742;BME280;53654;54.152;19.432;2022-09-21T15:22:19;102119.08;;;13.09;77.10
66742;BME280;53654;54.152;19.432;2022-09-21T15:27:25;102122.92;;;13.09;77.26
66742;BME280;53654;54.152;19.432;2022-09-21T15:29:55;102122.92;;;13.06;77.32
66742;BME280;53654;54.152;19.432;2022-09-21T15:32:38;102130.45;;;13.06;77.55
66742;BME280;53654;54.152;19.432;2022-09-21T15:35:20;102143.21;;;13.00;79.18
66742;BME280;53654;54.152;19.432;2022-09-21T15:37:49;102139.33;;;12.92;80.69
66742;BME280;53654;54.152;19.432;2022-09-21T15:40:24;102135.96;;;12.82;80.87
66742;BME280;53654;54.152;19.432;2022-09-21T15:43:04;102131.00;;;12.70;80.52
66742;BME280;53654;54.152;19.432;2022-09-21T15:45:49;102127.96;;;12.59;81.17
66742;BME280;53654;54.152;19.432;2022-09-21T15:48:19;102128.96;;;12.48;81.60
66742;BME280;53654;54.152;19.432;2022-09-21T15:50:52;102133.12;;;12.39;81.90
66742;BME280;53654;54.152;19.432;2022-09-21T15:53:28;102139.89;;;12.32;82.24
66742;BME280;53654;54.152;19.432;2022-09-21T15:55:58;102146.34;;;12.28;82.76
66742;BME280;53654;54.152;19.432;2022-09-21T15:58:34;102154.00;;;12.22;83.26
66742;BME280;53654;54.152;19.432;2022-09-21T16:01:13;102157.11;;;12.17;83.86
66742;BME280;53654;54.152;19.432;2022-09-21T16:03:42;102152.52;;;12.11;84.32
66742;BME280;53654;54.152;19.432;2022-09-21T16:06:38;102154.41;;;12.06;83.69
66742;BME280;53654;54.152;19.432;2022-09-21T16:11:52;102148.54;;;11.93;84.20
66742;BME280;53654;54.152;19.432;2022-09-21T16:14:21;102153.57;;;11.89;84.27
66742;BME280;53654;54.152;19.432;2022-09-21T16:24:58;102160.97;;;11.77;84.96
66742;BME280;53654;54.152;19.432;2022-09-21T16:27:29;102162.33;;;11.76;84.99
66742;BME280;53654;54.152;19.432;2022-09-21T16:29:58;102162.66;;;11.73;85.08
66742;BME280;53654;54.152;19.432;2022-09-21T16:32:32;102162.09;;;11.69;84.96
66742;BME280;53654;54.152;19.432;2022-09-21T16:37:48;102167.13;;;11.65;85.07
66742;BME280;53654;54.152;19.432;2022-09-21T16:40:16;102165.70;;;11.61;85.17
66742;BME280;53654;54.152;19.432;2022-09-21T16:42:45;102171.77;;;11.58;85.27